createdAt,value
2022-11-16T00:01:01.936Z,16.40
2022-11-16T00:03:33.581Z,18.40
2022-11-16T00:06:03.944Z,19.30
2022-11-16T00:08:35.022Z,19.93
2022-11-16T00:11:08.346Z,18.20
2022-11-16T00:13:38.919Z,20.93
2022-11-16T00:16:09.045Z,17.87
2022-11-16T00:18:39.688Z,18.30
2022-11-16T00:21:08.304Z,18.73
2022-11-16T00:23:38.460Z,19.17
2022-11-16T00:26:09.418Z,20.37
2022-11-16T00:28:37.884Z,20.53
2022-11-16T00:31:08.432Z,19.73
2022-11-16T00:33:37.150Z,20.23
2022-11-16T00:36:09.496Z,21.23
2022-11-16T00:38:38.496Z,17.80
2022-11-16T00:41:07.821Z,20.70
2022-11-16T00:43:36.810Z,21.27
2022-11-16T00:46:06.298Z,18.23
2022-11-16T00:48:35.077Z,20.83
2022-11-16T00:51:04.748Z,20.87
2022-11-16T00:53:34.954Z,19.63
2022-11-16T00:56:04.235Z,18.40
2022-11-16T00:58:37.060Z,16.17
2022-11-16T01:01:12.063Z,19.37
2022-11-16T01:03:40.926Z,18.03
2022-11-16T01:06:12.510Z,16.57
2022-11-16T01:08:43.594Z,17.60
2022-11-16T01:11:33.361Z,17.87
2022-11-16T01:14:03.154Z,17.53
2022-11-16T01:16:32.911Z,17.70
2022-11-16T01:19:01.522Z,15.93
2022-11-16T01:21:30.635Z,18.00
2022-11-16T01:24:00.871Z,18.73
2022-11-16T01:26:30.067Z,16.00
2022-11-16T01:28:59.785Z,16.63
2022-11-16T01:31:31.865Z,16.03
2022-11-16T01:34:04.129Z,17.90
2022-11-16T01:36:33.707Z,20.47
2022-11-16T01:39:06.435Z,17.93
2022-11-16T01:41:49.462Z,17.07
2022-11-16T01:44:58.612Z,16.00
2022-11-16T01:47:27.774Z,15.97
2022-11-16T01:50:03.524Z,15.40
2022-11-16T01:52:36.818Z,16.33
2022-11-16T01:55:07.543Z,17.47
2022-11-16T01:58:22.291Z,22.03
2022-11-16T02:00:57.216Z,17.00
2022-11-16T02:03:43.092Z,17.27
2022-11-16T02:06:35.020Z,17.67
2022-11-16T02:09:51.482Z,21.53
2022-11-16T02:12:38.391Z,19.07
2022-11-16T02:15:19.795Z,16.43
2022-11-16T02:18:05.850Z,17.50
2022-11-16T02:21:00.237Z,18.50
2022-11-16T02:24:00.971Z,19.50
2022-11-16T02:26:46.851Z,15.60
2022-11-16T02:29:24.293Z,16.33
2022-11-16T02:32:00.464Z,16.07
2022-11-16T02:34:34.157Z,13.77
2022-11-16T02:37:06.609Z,15.80
2022-11-16T02:39:38.391Z,17.17
2022-11-16T02:42:12.080Z,16.03
2022-11-16T02:44:46.184Z,14.40
2022-11-16T02:47:20.483Z,13.67
2022-11-16T02:49:57.720Z,15.97
2022-11-16T02:52:27.657Z,15.73
2022-11-16T02:54:56.519Z,15.60
2022-11-16T02:57:40.420Z,16.27
2022-11-16T03:00:20.382Z,14.33
2022-11-16T03:02:57.783Z,12.70
2022-11-16T03:05:32.995Z,15.90
2022-11-16T03:08:15.526Z,16.57
2022-11-16T03:11:04.716Z,15.53
2022-11-16T03:13:36.983Z,15.87
2022-11-16T03:16:12.538Z,14.70
2022-11-16T03:18:43.625Z,15.70
2022-11-16T03:21:18.903Z,16.07
2022-11-16T03:23:48.380Z,17.23
2022-11-16T03:26:23.935Z,14.40
2022-11-16T03:29:00.724Z,16.70
2022-11-16T03:31:39.955Z,15.30
2022-11-16T03:34:16.832Z,16.57
2022-11-16T03:36:49.308Z,12.93
2022-11-16T03:39:24.783Z,15.53
2022-11-16T03:41:54.412Z,13.97
2022-11-16T03:44:23.533Z,14.63
2022-11-16T03:46:53.820Z,13.70
2022-11-16T03:49:25.207Z,13.57
2022-11-16T03:51:55.663Z,16.40
2022-11-16T03:54:25.171Z,14.67
2022-11-16T03:56:54.044Z,14.30
2022-11-16T03:59:22.791Z,15.10
2022-11-16T04:01:53.565Z,13.30
2022-11-16T04:04:40.287Z,12.00
2022-11-16T04:07:28.404Z,13.17
2022-11-16T04:10:14.526Z,13.77
2022-11-16T04:13:03.264Z,12.70
2022-11-16T04:15:49.865Z,12.60
2022-11-16T04:18:37.571Z,13.70
2022-11-16T04:21:24.307Z,12.93
2022-11-16T04:24:14.507Z,14.43
2022-11-16T04:27:03.622Z,14.90
2022-11-16T04:29:33.050Z,13.83
2022-11-16T04:32:19.194Z,13.63
2022-11-16T04:35:07.235Z,17.73
2022-11-16T04:37:52.810Z,17.80
2022-11-16T04:40:39.822Z,14.50
2022-11-16T04:43:10.754Z,15.93
2022-11-16T04:46:07.673Z,14.33
2022-11-16T04:48:41.722Z,15.13
2022-11-16T04:51:13.142Z,17.47
2022-11-16T04:53:42.057Z,15.63
2022-11-16T04:56:23.492Z,13.40
2022-11-16T04:58:51.905Z,16.63
2022-11-16T05:01:42.138Z,15.37
2022-11-16T05:04:11.339Z,13.50
2022-11-16T05:06:42.202Z,13.70
2022-11-16T05:09:11.027Z,14.27
2022-11-16T05:11:39.587Z,14.27
2022-11-16T05:14:10.045Z,14.47
2022-11-16T05:16:39.866Z,14.87
2022-11-16T05:19:26.141Z,14.07
2022-11-16T05:21:56.300Z,14.53
2022-11-16T05:24:38.093Z,14.47
2022-11-16T05:27:10.107Z,13.60
2022-11-16T05:29:40.125Z,12.87
2022-11-16T05:32:12.190Z,15.07
2022-11-16T05:34:41.759Z,13.80
2022-11-16T05:37:13.656Z,14.10
2022-11-16T05:39:43.946Z,14.23
2022-11-16T05:42:12.364Z,13.30
2022-11-16T05:44:41.898Z,13.07
2022-11-16T05:47:11.743Z,14.40
2022-11-16T05:49:40.619Z,13.57
2022-11-16T05:52:09.544Z,13.67
2022-11-16T05:54:42.296Z,13.60
2022-11-16T05:57:10.857Z,14.40
2022-11-16T05:59:41.026Z,13.70
2022-11-16T06:02:09.614Z,14.57
2022-11-16T06:04:39.469Z,13.77
2022-11-16T06:07:08.093Z,14.07
2022-11-16T06:09:38.174Z,13.87
2022-11-16T06:12:16.783Z,12.33
2022-11-16T06:14:46.694Z,13.70
2022-11-16T06:17:15.592Z,13.07
2022-11-16T06:19:45.319Z,12.70
2022-11-16T06:22:15.536Z,12.40
2022-11-16T06:24:44.996Z,12.57
2022-11-16T06:27:14.064Z,12.50
2022-11-16T06:29:44.600Z,12.43
2022-11-16T06:32:15.091Z,14.33
2022-11-16T06:34:43.801Z,11.47
2022-11-16T06:37:14.273Z,13.30
2022-11-16T06:39:43.540Z,13.00
2022-11-16T06:42:12.401Z,13.20
2022-11-16T06:44:42.421Z,14.53
2022-11-16T06:47:15.948Z,12.43
2022-11-16T06:49:45.700Z,12.57
2022-11-16T06:52:20.191Z,14.87
2022-11-16T06:54:49.886Z,13.37
2022-11-16T06:57:19.524Z,11.47
2022-11-16T06:59:48.402Z,15.27
2022-11-16T07:02:21.737Z,11.10
2022-11-16T07:04:50.950Z,11.40
2022-11-16T07:07:20.608Z,11.67
2022-11-16T07:09:49.198Z,11.50
2022-11-16T07:12:18.545Z,13.43
2022-11-16T07:14:48.003Z,13.70
2022-11-16T07:17:17.842Z,13.50
2022-11-16T07:19:47.750Z,15.87
2022-11-16T07:22:16.728Z,12.93
2022-11-16T07:24:47.070Z,13.50
2022-11-16T07:27:15.602Z,13.50
2022-11-16T07:29:47.777Z,13.23
2022-11-16T07:32:48.024Z,16.17
2022-11-16T07:35:25.000Z,19.43
2022-11-16T07:37:53.813Z,15.17
2022-11-16T07:40:22.418Z,16.30
2022-11-16T07:42:51.994Z,14.50
2022-11-16T07:45:39.297Z,14.53
2022-11-16T07:48:12.858Z,16.67
2022-11-16T07:51:18.557Z,15.73
2022-11-16T07:54:06.601Z,13.93
2022-11-16T07:56:35.088Z,15.83
2022-11-16T07:59:04.544Z,16.20
2022-11-16T08:01:36.605Z,16.53
2022-11-16T08:04:07.171Z,18.47
2022-11-16T08:06:35.630Z,19.13
2022-11-16T08:09:05.311Z,13.03
2022-11-16T08:11:35.672Z,17.30
2022-11-16T08:14:05.283Z,18.83
2022-11-16T08:16:34.558Z,22.27
2022-11-16T08:19:12.556Z,17.90
2022-11-16T08:21:41.468Z,16.50
2022-11-16T08:24:10.593Z,13.47
2022-11-16T08:26:42.665Z,12.33
2022-11-16T08:29:15.623Z,12.53
2022-11-16T08:31:49.722Z,11.73
2022-11-16T08:34:22.568Z,11.30
2022-11-16T08:36:55.397Z,10.87
2022-11-16T08:39:29.279Z,8.70
2022-11-16T08:41:58.546Z,9.73
2022-11-16T08:44:27.476Z,8.50
2022-11-16T08:46:59.011Z,7.93
2022-11-16T08:49:37.215Z,8.20
2022-11-16T08:52:06.431Z,10.13
2022-11-16T08:54:36.787Z,10.70
2022-11-16T08:57:06.312Z,9.27
2022-11-16T08:59:38.315Z,16.90
2022-11-16T09:02:12.091Z,10.53
2022-11-16T09:04:42.986Z,11.27
2022-11-16T09:07:11.609Z,13.03
2022-11-16T09:09:41.043Z,12.33
2022-11-16T09:12:10.032Z,10.50
2022-11-16T09:14:38.943Z,10.20
2022-11-16T09:17:07.366Z,10.57
2022-11-16T09:19:36.780Z,9.53
2022-11-16T09:22:06.848Z,10.50
2022-11-16T09:24:36.449Z,9.53
2022-11-16T09:27:06.723Z,8.80
2022-11-16T09:29:36.003Z,11.93
2022-11-16T09:32:06.474Z,14.40
2022-11-16T09:34:35.305Z,8.57
2022-11-16T09:37:04.379Z,11.30
2022-11-16T09:39:34.949Z,17.37
2022-11-16T09:42:17.366Z,9.40
2022-11-16T09:45:07.967Z,11.70
2022-11-16T09:47:49.271Z,19.60
2022-11-16T09:50:28.299Z,23.33
2022-11-16T09:53:00.686Z,28.40
2022-11-16T09:55:36.397Z,14.47
2022-11-16T09:58:17.781Z,17.93
2022-11-16T10:00:52.717Z,9.40
2022-11-16T10:03:21.386Z,9.00
2022-11-16T10:06:03.032Z,20.07
2022-11-16T10:08:44.659Z,10.07
2022-11-16T10:11:33.189Z,17.13
2022-11-16T10:14:18.069Z,19.70
2022-11-16T10:16:55.099Z,16.23
2022-11-16T10:19:34.128Z,13.90
2022-11-16T10:22:11.985Z,8.30
2022-11-16T10:24:53.664Z,11.43
2022-11-16T10:27:45.648Z,11.20
2022-11-16T10:30:17.980Z,11.17
2022-11-16T10:32:50.503Z,19.27
2022-11-16T10:35:27.186Z,12.47
2022-11-16T10:37:59.642Z,9.70
2022-11-16T10:40:32.536Z,8.60
2022-11-16T10:43:06.562Z,8.20
2022-11-16T10:45:40.861Z,7.47
2022-11-16T10:48:19.017Z,8.57
2022-11-16T10:50:49.016Z,7.90
2022-11-16T10:53:28.619Z,8.53
2022-11-16T10:56:12.423Z,8.63
2022-11-16T10:58:53.857Z,8.63
2022-11-16T11:01:41.320Z,7.83
2022-11-16T11:04:22.644Z,8.00
2022-11-16T11:06:53.278Z,7.87
2022-11-16T11:09:32.322Z,8.33
2022-11-16T11:12:31.658Z,7.57
2022-11-16T11:15:05.270Z,8.88
2022-11-16T11:17:35.937Z,9.40
2022-11-16T11:20:07.824Z,9.73
2022-11-16T11:22:44.839Z,8.27
2022-11-16T11:25:23.220Z,8.80
2022-11-16T11:27:53.230Z,8.93
2022-11-16T11:30:23.946Z,8.37
2022-11-16T11:32:53.892Z,7.77
2022-11-16T11:35:28.548Z,8.77
2022-11-16T11:38:07.483Z,9.52
2022-11-16T11:40:36.774Z,10.40
2022-11-16T11:43:07.868Z,10.60
2022-11-16T11:45:46.020Z,10.90
2022-11-16T11:48:33.489Z,10.07
2022-11-16T11:51:05.949Z,9.97
2022-11-16T11:53:48.015Z,10.63
2022-11-16T11:56:16.823Z,10.43
2022-11-16T11:58:48.436Z,12.30
2022-11-16T12:01:33.459Z,11.83
2022-11-16T12:04:36.142Z,13.83
2022-11-16T12:07:13.972Z,13.47
2022-11-16T12:09:49.036Z,11.87
2022-11-16T12:12:35.371Z,13.60
2022-11-16T12:15:16.849Z,15.70
2022-11-16T12:17:55.823Z,15.63
2022-11-16T12:20:36.165Z,14.05
2022-11-16T12:23:27.466Z,15.48
2022-11-16T12:26:04.542Z,15.00
2022-11-16T12:28:52.752Z,14.65
2022-11-16T12:31:46.139Z,14.35
2022-11-16T12:34:26.711Z,18.30
2022-11-16T12:37:05.281Z,16.52
2022-11-16T12:39:36.954Z,16.88
2022-11-16T12:42:23.605Z,17.02
2022-11-16T12:45:18.723Z,15.90
2022-11-16T12:48:05.586Z,15.98
2022-11-16T12:50:51.221Z,18.33
2022-11-16T12:53:40.920Z,17.08
2022-11-16T12:56:18.476Z,15.07
2022-11-16T12:59:06.913Z,17.80
2022-11-16T13:01:40.631Z,17.60
2022-11-16T13:04:14.459Z,16.42
2022-11-16T13:06:51.214Z,15.48
2022-11-16T13:09:25.664Z,15.77
2022-11-16T13:11:57.931Z,18.35
2022-11-16T13:14:33.006Z,38.88
2022-11-16T13:17:04.139Z,22.50
2022-11-16T13:19:33.015Z,20.58
2022-11-16T13:22:14.066Z,17.15
2022-11-16T13:24:51.978Z,20.50
2022-11-16T13:27:30.606Z,17.80
2022-11-16T13:30:05.599Z,18.05
2022-11-16T13:32:54.148Z,17.45
2022-11-16T13:35:24.539Z,18.27
2022-11-16T13:37:54.673Z,17.85
2022-11-16T13:40:27.724Z,17.38
2022-11-16T13:43:05.976Z,26.33
2022-11-16T13:45:38.014Z,16.15
2022-11-16T13:48:18.707Z,17.23
2022-11-16T13:50:53.546Z,18.38
2022-11-16T13:56:25.541Z,15.50
2022-11-16T13:58:59.480Z,17.92
2022-11-16T14:01:59.098Z,15.43
2022-11-16T14:04:54.560Z,18.20
2022-11-16T14:07:35.427Z,17.27
2022-11-16T14:10:08.006Z,15.60
2022-11-16T14:13:01.614Z,19.20
2022-11-16T14:15:32.673Z,17.35
2022-11-16T14:18:37.590Z,19.58
2022-11-16T14:21:14.028Z,18.23
2022-11-16T14:24:15.107Z,17.52
2022-11-16T14:26:58.839Z,18.75
2022-11-16T14:29:45.434Z,18.33
2022-11-16T14:32:22.990Z,18.23
2022-11-16T14:34:55.013Z,16.92
2022-11-16T14:37:33.529Z,17.58
2022-11-16T14:40:08.364Z,17.25
2022-11-16T14:43:09.891Z,17.20
2022-11-16T14:45:39.686Z,16.92
2022-11-16T14:48:16.446Z,19.55
2022-11-16T14:50:58.545Z,17.35
2022-11-16T14:53:29.073Z,18.15
2022-11-16T14:56:07.836Z,21.25
2022-11-16T14:58:38.130Z,18.30
2022-11-16T15:01:09.452Z,18.30
2022-11-16T15:03:42.309Z,22.88
2022-11-16T15:06:11.303Z,18.00
2022-11-16T15:08:45.312Z,21.75
2022-11-16T15:11:23.929Z,21.63
2022-11-16T15:13:55.766Z,18.17
2022-11-16T15:16:24.704Z,18.30
2022-11-16T15:18:58.405Z,18.88
2022-11-16T15:21:28.245Z,18.42
2022-11-16T15:26:47.189Z,17.27
2022-11-16T15:29:19.771Z,19.02
2022-11-16T15:31:50.361Z,18.50
2022-11-16T15:34:20.289Z,17.55
2022-11-16T15:36:50.729Z,18.45
2022-11-16T15:39:23.028Z,19.73
2022-11-16T15:41:52.971Z,19.67
2022-11-16T15:44:24.826Z,19.50
2022-11-16T15:46:56.931Z,20.25
2022-11-16T15:49:30.220Z,19.23
2022-11-16T15:52:00.123Z,16.48
2022-11-16T15:54:52.120Z,20.83
2022-11-16T15:57:22.365Z,19.63
2022-11-16T15:59:54.938Z,27.55
2022-11-16T16:02:26.471Z,27.55
2022-11-16T16:04:55.621Z,27.67
2022-11-16T16:07:38.170Z,27.92
2022-11-16T16:10:15.176Z,27.65
2022-11-16T16:12:50.304Z,23.80
2022-11-16T16:15:26.854Z,25.50
2022-11-16T16:17:55.920Z,21.25
2022-11-16T16:20:27.715Z,18.55
2022-11-16T16:23:07.483Z,19.98
2022-11-16T16:25:37.464Z,17.35
2022-11-16T16:28:06.871Z,24.42
2022-11-16T16:30:36.631Z,23.17
2022-11-16T16:33:05.872Z,21.98
2022-11-16T16:35:34.686Z,26.52
2022-11-16T16:38:03.946Z,37.40
2022-11-16T16:40:32.426Z,33.50
2022-11-16T16:43:01.739Z,27.45
2022-11-16T16:45:38.616Z,25.58
2022-11-16T16:48:08.134Z,22.95
2022-11-16T16:50:37.581Z,24.48
2022-11-16T16:53:06.578Z,23.23
2022-11-16T16:55:37.816Z,20.80
2022-11-16T16:58:07.439Z,23.23
2022-11-16T17:00:37.776Z,27.73
2022-11-16T17:03:06.232Z,25.02
2022-11-16T17:05:35.486Z,23.05
2022-11-16T17:08:04.481Z,22.65
2022-11-16T17:10:32.904Z,21.67
2022-11-16T17:13:03.391Z,19.42
2022-11-16T17:15:31.916Z,19.63
2022-11-16T17:18:01.926Z,21.50
2022-11-16T17:20:30.346Z,21.00
2022-11-16T17:22:59.543Z,20.17
2022-11-16T17:25:27.963Z,21.23
2022-11-16T17:27:57.179Z,20.15
2022-11-16T17:30:26.400Z,25.03
2022-11-16T17:32:55.279Z,21.23
2022-11-16T17:35:25.742Z,19.77
2022-11-16T17:37:54.839Z,23.13
2022-11-16T17:40:23.273Z,22.08
2022-11-16T17:42:52.524Z,21.00
2022-11-16T17:45:20.944Z,21.40
2022-11-16T17:47:50.161Z,29.33
2022-11-16T17:50:18.603Z,25.70
2022-11-16T17:52:49.108Z,25.10
2022-11-16T17:55:18.201Z,22.23
2022-11-16T17:57:46.821Z,23.20
2022-11-16T18:00:17.678Z,28.48
2022-11-16T18:02:47.226Z,24.77
2022-11-16T18:05:15.660Z,24.40
2022-11-16T18:07:45.266Z,26.65
2022-11-16T18:10:19.170Z,23.90
2022-11-16T18:12:48.618Z,38.05
2022-11-16T18:15:34.523Z,32.53
2022-11-16T18:18:07.099Z,27.80
2022-11-16T18:20:37.485Z,30.88
2022-11-16T18:23:06.737Z,27.95
2022-11-16T18:25:36.892Z,28.13
2022-11-16T18:28:06.372Z,27.77
2022-11-16T18:30:35.194Z,30.30
2022-11-16T18:33:03.607Z,23.20
2022-11-16T18:35:33.122Z,21.95
2022-11-16T18:38:02.162Z,25.58
2022-11-16T18:40:31.590Z,24.73
2022-11-16T18:43:01.394Z,25.35
2022-11-16T18:45:30.662Z,25.25
2022-11-16T18:47:59.096Z,29.50
2022-11-16T18:50:28.322Z,40.80
2022-11-16T18:52:57.733Z,34.38
2022-11-16T18:55:27.013Z,29.10
2022-11-16T18:57:55.443Z,40.57
2022-11-16T19:00:26.242Z,33.45
2022-11-16T19:02:54.766Z,34.70
2022-11-16T19:05:23.734Z,46.10
2022-11-16T19:07:52.989Z,30.05
2022-11-16T19:10:21.949Z,28.48
2022-11-16T19:12:50.836Z,28.17
2022-11-16T19:15:19.353Z,29.52
2022-11-16T19:18:14.593Z,28.30
2022-11-16T19:20:39.364Z,30.17
2022-11-16T19:23:07.838Z,28.23
2022-11-16T19:25:37.182Z,26.45
2022-11-16T19:28:06.084Z,33.05
2022-11-16T19:30:35.329Z,37.90
2022-11-16T19:33:05.669Z,37.78
2022-11-16T19:35:34.444Z,32.03
2022-11-16T19:38:03.617Z,32.65
2022-11-16T19:40:32.037Z,34.60
2022-11-16T19:43:01.309Z,38.92
2022-11-16T19:45:29.716Z,25.48
2022-11-16T19:47:59.118Z,24.77
2022-11-16T19:50:29.365Z,28.48
2022-11-16T19:52:57.957Z,29.92
2022-11-16T19:55:28.601Z,30.75
2022-11-16T19:57:57.707Z,29.38
2022-11-16T20:00:26.617Z,26.30
2022-11-16T20:02:57.230Z,26.83
2022-11-16T20:05:30.279Z,34.67
2022-11-16T20:07:59.182Z,25.95
2022-11-16T20:10:29.634Z,26.52
2022-11-16T20:12:59.070Z,24.42
2022-11-16T20:15:27.516Z,30.00
2022-11-16T20:17:57.121Z,73.00
2022-11-16T20:20:26.104Z,25.63
2022-11-16T20:22:56.286Z,89.22
2022-11-16T20:25:24.658Z,27.63
2022-11-16T20:27:53.509Z,40.97
2022-11-16T20:30:22.552Z,23.60
2022-11-16T20:32:50.975Z,25.25
2022-11-16T20:35:20.178Z,29.60
2022-11-16T20:37:49.069Z,23.77
2022-11-16T20:40:18.966Z,21.23
2022-11-16T20:42:48.175Z,22.30
2022-11-16T20:45:16.660Z,21.88
2022-11-16T20:47:45.511Z,20.83
2022-11-16T20:50:13.918Z,19.65
2022-11-16T20:52:44.357Z,19.30
2022-11-16T20:55:15.838Z,19.60
2022-11-16T20:57:46.262Z,19.42
2022-11-16T21:00:16.599Z,19.70
2022-11-16T21:02:45.461Z,20.80
2022-11-16T21:05:13.974Z,20.77
2022-11-16T21:07:44.399Z,19.17
2022-11-16T21:10:21.634Z,20.58
2022-11-16T21:13:09.894Z,19.67
2022-11-16T21:15:38.793Z,25.00
2022-11-16T21:18:07.295Z,18.42
2022-11-16T21:20:36.742Z,18.73
2022-11-16T21:23:05.184Z,19.70
2022-11-16T21:25:34.393Z,18.93
2022-11-16T21:28:04.272Z,23.90
2022-11-16T21:30:33.136Z,21.40
2022-11-16T21:33:02.033Z,18.47
2022-11-16T21:35:31.147Z,19.23
2022-11-16T21:37:59.837Z,21.30
2022-11-16T21:40:28.849Z,19.70
2022-11-16T21:42:57.227Z,19.67
2022-11-16T21:45:27.457Z,22.90
2022-11-16T21:47:56.316Z,22.23
2022-11-16T21:50:31.543Z,20.90
2022-11-16T21:53:01.368Z,19.83
2022-11-16T21:55:29.965Z,20.25
2022-11-16T21:57:59.818Z,20.20
2022-11-16T22:00:29.592Z,22.33
2022-11-16T22:02:58.925Z,20.05
2022-11-16T22:05:45.075Z,22.77
2022-11-16T22:08:13.449Z,22.30
2022-11-16T22:10:42.471Z,18.52
2022-11-16T22:13:10.882Z,20.92
2022-11-16T22:15:41.219Z,19.88
2022-11-16T22:18:09.594Z,25.10
2022-11-16T22:20:38.846Z,20.60
2022-11-16T22:23:07.709Z,21.33
2022-11-16T22:25:37.805Z,25.13
2022-11-16T22:28:20.490Z,23.40
2022-11-16T22:30:52.286Z,21.58
2022-11-16T22:33:21.535Z,23.67
2022-11-16T22:35:49.924Z,25.30
2022-11-16T22:38:19.641Z,26.05
2022-11-16T22:40:52.771Z,23.93
2022-11-16T22:43:22.229Z,22.73
2022-11-16T22:45:52.415Z,22.83
2022-11-16T22:48:20.824Z,23.77
2022-11-16T22:50:50.115Z,24.67
2022-11-16T22:53:18.500Z,23.47
2022-11-16T22:55:47.294Z,22.58
2022-11-16T22:58:15.683Z,22.13
2022-11-16T23:00:44.754Z,28.73
2022-11-16T23:03:15.027Z,26.83
2022-11-16T23:05:43.499Z,29.53
2022-11-16T23:08:12.831Z,27.33
2022-11-16T23:10:55.176Z,23.80
2022-11-16T23:13:41.717Z,22.92
2022-11-16T23:16:10.260Z,23.73
2022-11-16T23:18:40.055Z,24.52
2022-11-16T23:21:26.531Z,29.27
2022-11-16T23:24:12.372Z,24.65
2022-11-16T23:26:58.882Z,25.43
2022-11-16T23:29:27.297Z,25.77
2022-11-16T23:31:56.159Z,25.50
2022-11-16T23:34:25.957Z,27.43
2022-11-16T23:36:55.242Z,24.27
2022-11-16T23:39:23.879Z,26.23
2022-11-16T23:42:10.282Z,24.08
2022-11-16T23:44:39.131Z,26.50
2022-11-16T23:47:07.525Z,24.20
2022-11-16T23:49:37.974Z,23.00
2022-11-16T23:52:06.566Z,20.98
2022-11-16T23:54:35.677Z,24.93
2022-11-16T23:57:05.174Z,22.73
2022-11-16T23:59:33.868Z,22.10
